RJCC F M0030
ILS Z RWY19L LDG RWY 19L DEP RWY 19R DEP FREQ 124.7. FLTCK INPR. M 170030Z 19014KT 60KM FEW035CU 16/07 Q1014/A2996= Q/TWO NINE NINE SIX STP

RJAA N M0030
ILS RWY34L LDG RWY 34L DEP RWY 34R DEP FREQ 124.2. OBSERVE GEAR DOWN OPS PROC ON FNL. M 170030Z 36008KT 330V040 25KM FEW009ST BKN030CU BKN045SC 17/15 Q1014/A2996= Q/TWO NINE NINE SIX STP

RJTT U M0000
ILS Z RWY34L/ILS Z RWY34R LDG RWY 34L/34R DEP RWY 05/34R DEP FREQ 126.0 FM RWY05. 120.8 FM RWY34R, SIMUL PARL ILS APCHS TO RWY34L/R ARE INPR, M 170000Z 05006KT 15KM FEW015CU SCT027SC BKN035SC 17/14 Q1014/A2995= Q/TWO NINE NINE FIVE STP

RJOO F M0000
ILS RWY32L USING RWY 32L/32R KANSAI DEP FREQ 119.5, INFORM YR LDG RWY TO OSAKA TWR ON INITIAL CTC. M 170000Z VRB02KT 20KM FEW080AC SCT120AC BKN/// 18/12 Q1014/A2997 RMK MOD TURB OBS AT 2340Z 20NM NE OHDAI BTN FL220 AND FL190 IN DES E190 AND MOD TURB OBS AT 2342Z OVER ROSIE BTN FL170 AND FL150 IN DES B738= Q/TWO NINE NINE SEVEN STP

RJFF G M0030
RNAV RWY16 USING RWY 16 DEP FREQ 127.9 ADZ FUKUOKA APP IF UNA RNAV APCH TWY W3 CLSD DUE TO CONST M 170030Z VRB04KT 35KM FEW/// 21/09 Q1015/A2998= Q/TWO NINE NINE EIGHT STP

ROAH R M0030
ILS Z RWY36L LDG RWY 36L DEP RWY 36R DEP FREQ 119.1 335.8 M 170030Z 04008KT 8KM -RA FEW007ST SCT015CU OVC050SC 20/19 Q1013/A2993= Q/TWO NINE NINE THREE STP